Time;durP1;ratioP1;P1;durP2;ratioP2;P2;SDS_P1;SDS_P2;PMS_P1;PMS_P2;Temp;Humidity;BMP_temperature;BMP_pressure;BME280_temperature;BME280_humidity;BME280_pressure;Samples;Min_cycle;Max_cycle;Signal;HPM_P1;HPM_P2
2022/10/17 00:01:13;;;;;;;5.50;3.20;;;;;;;7.33;58.97;100628.31;5091027;28;20422;-56
2022/10/17 00:03:40;;;;;;;4.80;2.80;;;;;;;7.33;59.08;100614.56;5072830;28;20595;-55
2022/10/17 00:06:10;;;;;;;5.95;3.20;;;;;;;7.32;58.90;100620.59;5090337;28;20032;-56
2022/10/17 00:08:36;;;;;;;8.47;3.57;;;;;;;7.28;59.20;100613.69;5090584;28;20040;-55
2022/10/17 00:11:11;;;;;;;4.85;2.65;;;;;;;7.29;59.16;100610.25;5087570;28;20285;-56
2022/10/17 00:13:36;;;;;;;5.25;2.78;;;;;;;7.29;59.08;100597.31;5089291;28;20043;-57
2022/10/17 00:16:03;;;;;;;9.50;3.70;;;;;;;7.29;59.20;100603.34;5089994;28;20360;-58
2022/10/17 00:18:29;;;;;;;5.72;2.83;;;;;;;7.13;59.04;100573.28;5088714;28;20035;-58
2022/10/17 00:20:55;;;;;;;5.13;2.30;;;;;;;7.29;59.26;100597.31;5086896;28;20073;-58
2022/10/17 00:23:21;;;;;;;7.18;2.58;;;;;;;7.26;59.22;100598.22;5089648;28;20073;-56
2022/10/17 00:25:47;;;;;;;8.13;3.67;;;;;;;6.88;59.20;100525.19;5088990;28;20044;-59
2022/10/17 00:28:14;;;;;;;5.22;2.88;;;;;;;7.16;59.47;100571.56;5088607;28;20470;-58
2022/10/17 00:30:40;;;;;;;3.90;2.33;;;;;;;7.24;59.44;100581.84;5089808;28;20047;-53
2022/10/17 00:33:06;;;;;;;7.88;3.20;;;;;;;7.22;59.54;100576.66;5090047;28;20059;-56
2022/10/17 00:35:32;;;;;;;6.82;2.80;;;;;;;7.12;59.25;100564.66;5089265;28;20511;-58
2022/10/17 00:37:58;;;;;;;2.75;1.73;;;;;;;7.22;59.59;100581.84;5089297;28;20101;-57
2022/10/17 00:40:25;;;;;;;6.22;2.60;;;;;;;7.21;59.35;100564.63;5091222;28;20039;-57
2022/10/17 00:42:52;;;;;;;8.45;3.50;;;;;;;7.01;59.31;100530.28;5090499;28;20041;-51
2022/10/17 00:45:21;;;;;;;4.95;2.70;;;;;;;7.23;59.81;100567.19;5091061;28;20039;-56
2022/10/17 00:47:50;;;;;;;6.32;3.42;;;;;;;7.03;59.71;100520.78;5089615;28;20089;-57
2022/10/17 00:50:17;;;;;;;4.47;2.20;;;;;;;7.23;59.96;100555.13;5091285;28;20525;-56
2022/10/17 00:52:46;;;;;;;6.57;2.38;;;;;;;6.91;59.70;100507.09;5088077;28;20126;-53
2022/10/17 00:55:19;;;;;;;3.22;1.92;;;;;;;6.99;59.87;100516.50;5089739;28;20534;-51
2022/10/17 00:57:45;;;;;;;4.10;2.60;;;;;;;6.98;59.60;100509.59;5073900;28;20047;-55
2022/10/17 01:00:12;;;;;;;4.85;2.97;;;;;;;6.96;59.46;100508.75;5076070;28;20126;-57
2022/10/17 01:02:40;;;;;;;10.93;3.05;;;;;;;7.15;59.82;100543.97;5089072;28;20082;-57
2022/10/17 01:05:08;;;;;;;4.28;2.72;;;;;;;7.13;59.65;100534.50;5103233;28;20082;-55
2022/10/17 01:07:37;;;;;;;5.40;2.58;;;;;;;6.99;59.84;100513.91;5087633;28;20123;-54
2022/10/17 01:10:04;;;;;;;5.57;2.70;;;;;;;7.10;60.19;100525.03;5089523;28;20093;-55
2022/10/17 01:12:36;;;;;;;10.90;2.80;;;;;;;7.10;59.99;100537.97;5090591;28;20476;-55
2022/10/17 01:15:28;;;;;;;7.43;2.38;;;;;;;7.07;60.01;100522.47;5072262;28;20443;-57
2022/10/17 01:18:06;;;;;;;6.05;2.83;;;;;;;7.03;60.64;100522.50;5086516;28;20040;-56
2022/10/17 01:20:57;;;;;;;4.18;2.53;;;;;;;7.02;60.34;100513.03;5072459;28;20079;-56
2022/10/17 01:23:32;;;;;;;2.10;1.52;;;;;;;7.00;60.54;100518.22;5089366;28;20028;-55
2022/10/17 01:26:18;;;;;;;4.90;2.22;;;;;;;6.98;60.58;100507.03;5089256;28;20097;-53
2022/10/17 01:29:09;;;;;;;4.15;2.80;;;;;;;6.98;60.18;100504.44;5072541;28;20044;-55
2022/10/17 01:31:42;;;;;;;4.53;2.15;;;;;;;6.97;60.28;100510.47;5090131;28;20039;-55
2022/10/17 01:34:23;;;;;;;5.53;2.55;;;;;;;6.99;60.47;100501.00;5070116;28;20067;-55
2022/10/17 01:36:58;;;;;;;4.82;2.33;;;;;;;7.01;60.38;100498.41;5085016;28;20040;-55
2022/10/17 01:39:27;;;;;;;6.03;3.00;;;;;;;7.01;60.16;100495.81;5082327;28;20126;-55
2022/10/17 01:42:04;;;;;;;5.80;2.80;;;;;;;6.96;60.26;100487.25;5088426;28;20154;-58
2022/10/17 01:44:43;;;;;;;5.80;3.13;;;;;;;7.03;60.62;100486.31;5067471;28;20055;-58
2022/10/17 01:47:12;;;;;;;11.73;3.05;;;;;;;6.80;60.27;100435.63;5067640;28;20094;-57
2022/10/17 01:49:42;;;;;;;9.07;3.50;;;;;;;7.06;60.15;100487.16;5070167;28;20116;-57
2022/10/17 01:52:19;;;;;;;3.53;2.42;;;;;;;7.02;60.55;100462.19;5069382;28;20048;-57
2022/10/17 01:54:55;;;;;;;5.03;2.75;;;;;;;7.06;60.17;100473.38;5068447;28;20044;-58
2022/10/17 01:57:34;;;;;;;11.95;3.80;;;;;;;7.05;60.45;100474.25;5035398;28;20082;-56
2022/10/17 02:00:05;;;;;;;8.23;3.10;;;;;;;7.06;60.58;100478.53;5054364;28;20047;-59
2022/10/17 02:02:40;;;;;;;7.40;2.95;;;;;;;7.04;60.65;100468.22;5088883;28;20138;-56
2022/10/17 02:05:07;;;;;;;7.15;3.22;;;;;;;6.80;60.50;100433.03;5087413;28;20078;-54
2022/10/17 02:07:33;;;;;;;9.32;2.58;;;;;;;7.08;60.54;100481.97;5088335;28;20044;-54
2022/10/17 02:09:58;;;;;;;6.07;2.60;;;;;;;7.08;60.13;100482.81;5087243;28;20040;-54
2022/10/17 02:13:00;;;;;;;4.47;2.15;;;;;;;7.11;60.23;100463.84;5086455;28;20535;-54
2022/10/17 02:15:29;;;;;;;8.55;3.10;;;;;;;7.11;60.10;100463.84;5060154;28;20055;-56
2022/10/17 02:18:23;;;;;;;3.65;2.47;;;;;;;7.13;60.40;100462.09;5068560;28;20040;-56
2022/10/17 02:20:52;;;;;;;3.97;2.70;;;;;;;7.12;59.97;100453.47;5084872;28;20051;-56
2022/10/17 02:23:43;;;;;;;4.07;2.78;;;;;;;7.09;60.53;100466.44;5072526;28;20461;-56
2022/10/17 02:26:48;;;;;;;6.20;3.10;;;;;;;7.01;60.52;100447.56;5089528;28;20512;-56
2022/10/17 02:29:35;;;;;;;9.80;3.42;;;;;;;7.01;60.48;100460.47;5071068;28;20040;-60
2022/10/17 02:32:08;;;;;;;6.78;3.10;;;;;;;7.02;60.48;100469.06;5069868;28;20514;-57
2022/10/17 02:34:38;;;;;;;6.43;2.67;;;;;;;6.92;60.52;100451.91;5070994;28;20040;-56
2022/10/17 02:37:06;;;;;;;5.25;3.03;;;;;;;6.96;60.75;100467.38;5070259;28;20039;-54
2022/10/17 02:39:33;;;;;;;5.93;2.55;;;;;;;6.89;60.96;100457.97;5071019;28;20515;-52
2022/10/17 02:42:06;;;;;;;6.85;2.75;;;;;;;6.81;61.12;100452.84;5071785;28;20043;-50
2022/10/17 02:44:32;;;;;;;3.75;1.85;;;;;;;6.89;60.82;100455.41;5072130;28;20051;-56
2022/10/17 02:47:07;;;;;;;4.33;2.07;;;;;;;6.85;61.21;100440.78;5092065;28;20036;-57
2022/10/17 02:49:38;;;;;;;8.15;3.05;;;;;;;6.81;61.08;100446.81;5092706;28;20430;-56
2022/10/17 02:52:28;;;;;;;3.45;2.25;;;;;;;6.79;61.40;100428.75;5073946;28;20480;-54
2022/10/17 02:55:07;;;;;;;5.15;2.55;;;;;;;6.76;61.72;100441.69;5086916;28;20574;-56
2022/10/17 02:57:37;;;;;;;6.90;2.65;;;;;;;6.78;61.28;100433.94;5095409;28;20123;-57
2022/10/17 03:00:08;;;;;;;3.00;2.00;;;;;;;6.78;61.30;100428.75;5073999;28;20075;-59
2022/10/17 03:02:48;;;;;;;6.07;3.03;;;;;;;6.56;61.21;100389.28;5039102;28;20044;-59
2022/10/17 03:05:20;;;;;;;5.95;3.20;;;;;;;6.79;61.90;100427.91;5071567;28;20119;-56
2022/10/17 03:07:46;;;;;;;8.18;2.60;;;;;;;6.80;61.70;100435.63;5074174;28;20040;-56
2022/10/17 03:10:12;;;;;;;8.68;3.25;;;;;;;6.80;61.66;100430.44;5091487;28;20050;-53
2022/10/17 03:12:38;;;;;;;4.30;2.58;;;;;;;6.80;61.59;100424.44;5074418;28;20039;-54
2022/10/17 03:15:05;;;;;;;7.90;3.53;;;;;;;6.64;61.68;100402.16;5090825;28;20089;-55
2022/10/17 03:17:31;;;;;;;6.35;2.80;;;;;;;6.81;61.60;100419.25;5092286;28;20024;-55
2022/10/17 03:19:57;;;;;;;4.18;1.90;;;;;;;6.84;61.44;100408.03;5089924;28;20418;-57
2022/10/17 03:22:23;;;;;;;4.72;2.55;;;;;;;6.86;61.70;100393.38;5092525;28;20048;-51
2022/10/17 03:24:50;;;;;;;8.98;2.80;;;;;;;6.89;61.34;100390.78;5089758;28;20043;-54
2022/10/17 03:27:18;;;;;;;7.60;2.65;;;;;;;6.90;61.78;100384.75;5057888;28;20036;-57
2022/10/17 03:29:45;;;;;;;7.28;3.08;;;;;;;6.78;61.54;100372.78;5090001;28;20080;-58
2022/10/17 03:32:12;;;;;;;6.07;2.95;;;;;;;6.71;61.16;100342.66;5091266;28;20050;-56
2022/10/17 03:34:38;;;;;;;10.65;3.17;;;;;;;6.97;61.36;100383.81;5090352;28;20097;-56
2022/10/17 03:37:04;;;;;;;8.65;2.95;;;;;;;6.97;61.02;100391.56;5092532;28;20067;-55
2022/10/17 03:39:32;;;;;;;5.85;3.38;;;;;;;6.94;61.44;100386.41;5089903;28;20042;-58
2022/10/17 03:41:58;;;;;;;7.22;3.05;;;;;;;6.94;61.41;100393.31;5074727;28;20063;-59
2022/10/17 03:44:24;;;;;;;4.00;2.42;;;;;;;6.93;61.41;100381.25;5090471;28;20051;-57
2022/10/17 03:46:51;;;;;;;5.65;3.55;;;;;;;6.88;61.48;100376.13;5073802;28;20086;-57
2022/10/17 03:49:19;;;;;;;3.15;1.90;;;;;;;6.72;61.48;100349.56;5091981;28;20525;-57
2022/10/17 03:51:45;;;;;;;6.80;2.67;;;;;;;6.90;61.10;100376.13;5091021;28;20055;-58
2022/10/17 03:54:13;;;;;;;8.18;2.40;;;;;;;6.82;61.24;100363.25;5070978;28;20143;-56
2022/10/17 03:56:39;;;;;;;5.93;2.70;;;;;;;6.87;61.83;100378.72;5080866;28;20194;-58
2022/10/17 03:59:13;;;;;;;5.35;2.72;;;;;;;6.87;61.91;100363.22;5082705;28;20133;-58
2022/10/17 04:01:38;;;;;;;8.13;3.60;;;;;;;6.82;61.67;100351.19;5089131;28;20087;-55
2022/10/17 04:04:04;;;;;;;7.75;2.97;;;;;;;6.90;61.90;100355.44;5090896;28;20456;-57
2022/10/17 04:06:33;;;;;;;5.57;2.80;;;;;;;6.86;61.88;100346.84;5072541;28;20043;-56
2022/10/17 04:09:00;;;;;;;5.65;2.78;;;;;;;6.72;61.68;100318.53;5090230;28;20519;-55
2022/10/17 04:11:46;;;;;;;5.50;3.38;;;;;;;6.91;61.81;100352.00;5090531;28;20051;-56
2022/10/17 04:14:11;;;;;;;6.70;2.50;;;;;;;6.88;61.30;100337.34;5091179;28;20035;-51
2022/10/17 04:16:40;;;;;;;7.53;2.90;;;;;;;6.86;61.40;100339.09;5090762;28;20043;-56
2022/10/17 04:19:12;;;;;;;5.20;3.22;;;;;;;6.92;61.14;100336.44;5069902;28;20044;-58
2022/10/17 04:21:43;;;;;;;8.63;3.33;;;;;;;6.93;61.46;100339.91;5087687;28;20484;-57
2022/10/17 04:24:10;;;;;;;9.43;3.10;;;;;;;6.96;61.56;100338.13;5089927;28;20115;-59
2022/10/17 04:26:53;;;;;;;5.50;3.03;;;;;;;6.99;61.57;100326.91;5090924;28;20043;-58
2022/10/17 04:29:23;;;;;;;7.50;3.45;;;;;;;7.00;61.36;100324.34;5090787;28;20046;-57
2022/10/17 04:31:51;;;;;;;6.28;3.30;;;;;;;7.03;61.15;100326.00;5074058;28;20507;-58
2022/10/17 04:34:26;;;;;;;6.93;3.08;;;;;;;6.93;61.39;100290.78;5092010;28;20128;-57
2022/10/17 04:36:52;;;;;;;6.47;3.13;;;;;;;7.11;61.47;100324.22;5088986;28;20482;-55
2022/10/17 04:39:19;;;;;;;8.23;3.10;;;;;;;6.85;61.08;100290.03;5072389;28;20445;-56
2022/10/17 04:41:46;;;;;;;4.57;2.85;;;;;;;7.06;61.08;100318.25;5089495;28;20035;-57
2022/10/17 04:44:12;;;;;;;5.07;2.88;;;;;;;6.90;61.45;100283.94;5089484;28;20541;-55
2022/10/17 04:46:42;;;;;;;6.40;3.03;;;;;;;6.88;61.60;100297.72;5073676;28;20392;-54
2022/10/17 04:49:11;;;;;;;5.68;2.55;;;;;;;7.10;61.07;100320.78;5089532;28;20070;-56
2022/10/17 04:51:38;;;;;;;7.40;3.22;;;;;;;6.95;61.41;100292.50;5070253;28;20837;-61
2022/10/17 04:54:33;;;;;;;7.00;3.80;;;;;;;7.11;61.27;100326.81;5076076;28;20051;-60
2022/10/17 04:57:11;;;;;;;5.97;3.25;;;;;;;7.14;60.75;100321.59;5089580;28;20431;-61
2022/10/17 04:59:39;;;;;;;8.73;3.40;;;;;;;7.07;61.55;100291.50;5089334;27;20040;-63
2022/10/17 05:02:26;;;;;;;7.22;3.20;;;;;;;7.10;61.67;100312.16;5088255;28;20551;-66
2022/10/17 05:04:52;;;;;;;9.02;3.50;;;;;;;7.11;61.99;100309.56;5056287;28;20178;-64
2022/10/17 05:07:19;;;;;;;4.22;3.13;;;;;;;7.08;61.99;100308.72;5071875;28;20119;-61
2022/10/17 05:09:57;;;;;;;7.20;3.05;;;;;;;7.04;61.42;100341.53;5068709;28;20500;-63
2022/10/17 05:12:24;;;;;;;10.90;3.33;;;;;;;6.99;61.67;100306.25;5087429;28;20048;-61
2022/10/17 05:14:49;;;;;;;4.30;2.72;;;;;;;7.12;62.01;100307.81;5076468;28;20056;-62
2022/10/17 05:17:16;;;;;;;4.53;2.72;;;;;;;7.14;61.85;100306.09;5092844;28;20040;-62
2022/10/17 05:19:43;;;;;;;6.38;3.13;;;;;;;7.12;61.51;100282.81;5071875;28;20051;-64
2022/10/17 05:22:09;;;;;;;5.38;2.58;;;;;;;7.26;61.50;100287.00;5089089;28;20090;-62
2022/10/17 05:24:34;;;;;;;5.15;2.65;;;;;;;7.25;61.10;100286.13;5088667;28;20457;-62
2022/10/17 05:27:00;;;;;;;7.15;2.95;;;;;;;7.31;61.02;100309.34;5088994;28;20511;-63
2022/10/17 05:29:27;;;;;;;4.32;2.47;;;;;;;7.32;61.13;100308.50;5089762;28;20054;-63
2022/10/17 05:32:02;;;;;;;11.75;2.72;;;;;;;7.33;60.64;100288.66;5088772;28;20462;-63
2022/10/17 05:34:28;;;;;;;5.55;2.85;;;;;;;7.38;60.65;100287.69;5088020;28;20438;-64
2022/10/17 05:36:54;;;;;;;2.53;1.75;;;;;;;7.42;60.67;100284.22;5089101;28;20042;-62
2022/10/17 05:39:24;;;;;;;9.18;2.92;;;;;;;7.50;60.27;100282.38;5072734;28;20156;-65
2022/10/17 05:41:51;;;;;;;4.85;2.05;;;;;;;7.56;60.03;100266.78;5051486;28;20040;-62
2022/10/17 05:44:17;;;;;;;6.65;3.10;;;;;;;7.66;60.15;100283.91;5073182;28;20117;-63
2022/10/17 05:46:50;;;;;;;;;;;;;;;7.75;59.61;100284.66;5086754;28;20504;-70
2022/10/17 05:49:16;;;;;;;5.50;3.22;;;;;;;7.79;59.74;100261.31;5084982;28;20002;-65
2022/10/17 05:51:45;;;;;;;6.85;3.80;;;;;;;7.66;59.08;100206.28;5069646;28;20078;-64
2022/10/17 05:54:11;;;;;;;6.40;2.85;;;;;;;7.90;59.24;100249.03;5104451;28;20043;-62
2022/10/17 05:56:37;;;;;;;8.63;3.20;;;;;;;7.95;58.82;100236.94;5088680;28;20454;-65
2022/10/17 05:59:03;;;;;;;5.78;2.60;;;;;;;8.11;58.70;100270.34;5084565;28;20126;-67
2022/10/17 06:01:48;;;;;;;9.07;3.13;;;;;;;8.08;58.70;100256.56;5090752;28;20405;-68
2022/10/17 06:04:15;;;;;;;6.80;3.35;;;;;;;8.02;58.50;100232.50;5082722;28;20459;-65
2022/10/17 06:06:41;;;;;;;5.70;2.60;;;;;;;7.96;58.07;100222.22;5086703;28;20602;-68
2022/10/17 06:09:09;;;;;;;4.75;2.90;;;;;;;8.21;58.20;100265.00;5071453;28;20048;-70
2022/10/17 06:11:38;;;;;;;;;;;;;;;8.14;58.02;100268.56;5072987;28;20036;-64
2022/10/17 06:14:05;;;;;;;7.93;2.40;;;;;;;8.06;58.41;100284.19;5097046;28;19919;-67
2022/10/17 06:16:31;;;;;;;5.28;2.25;;;;;;;8.01;58.82;100260.09;5091303;28;20036;-64
2022/10/17 06:18:57;;;;;;;6.47;3.53;;;;;;;7.96;59.32;100240.34;5071026;28;20058;-58
2022/10/17 06:21:25;;;;;;;8.05;3.55;;;;;;;7.84;58.94;100231.03;5096048;28;20850;-56
2022/10/17 06:23:57;;;;;;;6.43;3.55;;;;;;;8.05;59.22;100264.38;5096182;28;20047;-55
2022/10/17 06:26:34;;;;;;;8.35;3.70;;;;;;;8.08;59.20;100246.19;5075652;28;20070;-56
2022/10/17 06:29:00;;;;;;;7.88;3.30;;;;;;;8.14;59.03;100257.34;5077572;28;20504;-61
2022/10/17 06:31:31;;;;;;;8.88;3.10;;;;;;;8.11;59.10;100255.69;5071374;28;20051;-62
2022/10/17 06:33:57;;;;;;;3.55;2.22;;;;;;;8.18;58.63;100266.78;5087317;28;20142;-52
2022/10/17 06:36:23;;;;;;;10.88;3.45;;;;;;;8.19;58.85;100264.16;5085116;28;20062;-58
2022/10/17 06:38:50;;;;;;;6.57;2.63;;;;;;;7.80;58.77;100195.69;5085409;28;20043;-57
2022/10/17 06:41:26;;;;;;;6.22;2.85;;;;;;;7.95;58.73;100220.53;5079381;28;20047;-61
2022/10/17 06:43:56;;;;;;;9.52;3.08;;;;;;;8.13;59.15;100212.47;5085039;28;20059;-61
2022/10/17 06:46:25;;;;;;;10.18;3.50;;;;;;;8.15;59.50;100231.44;5093796;28;20039;-60
2022/10/17 06:49:00;;;;;;;6.35;3.45;;;;;;;8.36;58.94;100207.81;5077532;28;20048;-60
2022/10/17 06:51:46;;;;;;;8.23;3.95;;;;;;;8.57;57.79;100211.75;5081602;28;20132;-60
2022/10/17 06:54:15;;;;;;;5.63;2.78;;;;;;;8.70;57.91;100209.78;5092845;28;20427;-62
2022/10/17 06:57:04;;;;;;;7.47;3.28;;;;;;;8.75;57.70;100210.56;5071157;28;20408;-62
2022/10/17 06:59:56;;;;;;;6.53;2.85;;;;;;;8.91;57.19;100215.44;5064857;28;20051;-62
2022/10/17 07:02:29;;;;;;;9.70;3.45;;;;;;;9.05;57.24;100227.28;5079902;28;20058;-61
2022/10/17 07:04:57;;;;;;;6.15;3.20;;;;;;;8.96;56.61;100196.31;5080052;28;20067;-66
2022/10/17 07:07:23;;;;;;;5.38;3.65;;;;;;;8.89;56.15;100199.06;5081878;28;20058;-60
2022/10/17 07:09:51;;;;;;;8.20;3.30;;;;;;;9.01;56.72;100228.22;5085254;28;20048;-63
2022/10/17 07:12:19;;;;;;;13.43;3.72;;;;;;;9.03;56.91;100229.03;5069513;28;20048;-61
2022/10/17 07:14:46;;;;;;;8.55;3.22;;;;;;;9.00;56.56;100211.81;5079873;28;20051;-59
2022/10/17 07:17:12;;;;;;;7.03;2.85;;;;;;;8.68;56.72;100159.72;5077179;28;20032;-60
2022/10/17 07:19:38;;;;;;;9.05;3.90;;;;;;;8.87;56.72;100205.16;5072159;28;20521;-57
2022/10/17 07:22:06;;;;;;;6.25;3.13;;;;;;;8.72;57.31;100221.00;5079816;28;20032;-56
2022/10/17 07:24:35;;;;;;;10.07;4.03;;;;;;;8.60;58.21;100226.38;5082894;28;20609;-56
2022/10/17 07:27:12;;;;;;;9.23;3.85;;;;;;;8.54;59.61;100218.72;5067700;28;20055;-62
2022/10/17 07:29:38;;;;;;;6.80;2.72;;;;;;;8.41;60.80;100220.69;5053150;28;20090;-60
2022/10/17 07:32:10;;;;;;;7.35;3.60;;;;;;;8.33;61.31;100199.22;5088017;28;20036;-63
2022/10/17 07:34:36;;;;;;;10.73;3.95;;;;;;;8.35;61.24;100206.09;5089251;28;20036;-59
2022/10/17 07:37:06;;;;;;;8.48;3.40;;;;;;;8.22;61.81;100172.59;5068911;28;20047;-63
2022/10/17 07:39:34;;;;;;;10.13;4.00;;;;;;;8.47;61.45;100192.06;5086211;28;20036;-63
2022/10/17 07:42:01;;;;;;;7.13;3.97;;;;;;;8.50;61.49;100207.56;5084759;28;20070;-53
2022/10/17 07:44:28;;;;;;;8.68;3.85;;;;;;;8.47;61.77;100197.25;5083497;28;20075;-52
2022/10/17 07:46:54;;;;;;;7.18;3.00;;;;;;;8.42;61.34;100184.38;5082639;28;20059;-57
2022/10/17 07:49:20;;;;;;;10.88;3.67;;;;;;;8.42;61.26;100192.16;5065969;28;20057;-56
2022/10/17 07:51:46;;;;;;;8.13;3.80;;;;;;;8.22;61.08;100160.50;5085598;28;20067;-61
2022/10/17 07:54:13;;;;;;;6.68;2.65;;;;;;;8.17;62.03;100151.97;5085833;28;20041;-61
2022/10/17 07:56:39;;;;;;;9.43;3.75;;;;;;;7.91;64.76;100193.81;5087404;28;20039;-62
2022/10/17 07:59:04;;;;;;;8.88;3.33;;;;;;;7.29;66.86;100152.47;5089794;28;20043;-60
2022/10/17 08:01:30;;;;;;;17.10;4.60;;;;;;;7.46;68.28;100199.66;5088414;28;20044;-58
2022/10/17 08:03:57;;;;;;;10.38;4.90;;;;;;;7.39;68.85;100213.53;5090265;28;20496;-62
2022/10/17 08:06:23;;;;;;;12.27;4.80;;;;;;;7.43;69.25;100203.13;5092181;28;20039;-53
2022/10/17 08:08:49;;;;;;;8.35;4.07;;;;;;;7.35;69.82;100212.72;5094188;28;20461;-64
2022/10/17 08:11:14;;;;;;;9.88;3.47;;;;;;;7.21;70.41;100175.84;5087528;28;20135;-65
2022/10/17 08:13:41;;;;;;;10.15;4.40;;;;;;;7.24;72.21;100193.91;5084574;28;20781;-61
2022/10/17 08:16:09;;;;;;;12.90;4.93;;;;;;;7.20;72.82;100187.94;5083606;28;20068;-64
2022/10/17 08:18:36;;;;;;;5.70;2.78;;;;;;;7.21;72.69;100188.78;5087084;28;20271;-64
2022/10/17 08:21:05;;;;;;;4.90;3.25;;;;;;;7.20;72.59;100198.28;5090056;28;20028;-62
2022/10/17 08:23:31;;;;;;;7.28;4.35;;;;;;;7.29;73.02;100188.66;5084689;28;20067;-62
2022/10/17 08:26:05;;;;;;;8.95;4.30;;;;;;;7.42;72.10;100185.94;5079537;28;20225;-60
2022/10/17 08:28:34;;;;;;;9.23;4.50;;;;;;;7.55;71.53;100184.84;5083900;28;20036;-57
2022/10/17 08:31:08;;;;;;;10.40;4.20;;;;;;;7.75;71.22;100205.28;5081173;28;20050;-62
2022/10/17 08:33:34;;;;;;;10.10;4.22;;;;;;;7.73;70.18;100163.03;5063777;28;20790;-63
2022/10/17 08:36:01;;;;;;;10.85;3.67;;;;;;;8.14;69.64;100188.28;5082608;28;20044;-62
2022/10/17 08:38:29;;;;;;;10.30;4.50;;;;;;;8.38;68.71;100164.56;5077649;28;20040;-62
2022/10/17 08:41:01;;;;;;;7.25;3.10;;;;;;;8.52;68.00;100192.84;5084258;28;20511;-65
2022/10/17 08:43:49;;;;;;;15.40;4.57;;;;;;;8.12;67.44;100103.72;5067040;28;20546;-64
2022/10/17 08:46:15;;;;;;;9.38;4.40;;;;;;;8.52;67.28;100158.31;5078631;28;20060;-64
2022/10/17 08:48:45;;;;;;;9.35;3.92;;;;;;;8.49;66.64;100149.69;5080319;28;20132;-64
2022/10/17 08:51:21;;;;;;;8.23;4.03;;;;;;;8.52;66.81;100169.53;5093700;28;20045;-62
2022/10/17 08:53:51;;;;;;;9.00;4.35;;;;;;;8.43;66.56;100180.88;5104392;28;20515;-58
2022/10/17 08:56:20;;;;;;;9.43;5.22;;;;;;;8.38;66.81;100192.22;5072330;28;20068;-62
2022/10/17 08:58:46;;;;;;;7.68;4.00;;;;;;;8.27;67.30;100179.41;5087539;28;20040;-61
2022/10/17 09:01:30;;;;;;;9.20;4.05;;;;;;;8.30;67.75;100200.13;5078179;28;21647;-62
2022/10/17 09:04:25;;;;;;;11.20;4.40;;;;;;;8.03;70.14;100182.41;5055006;28;20048;-63
2022/10/17 09:06:56;;;;;;;10.38;4.30;;;;;;;7.72;73.10;100160.47;5078202;28;20402;-59
2022/10/17 09:09:34;;;;;;;8.30;4.38;;;;;;;7.45;75.43;100197.94;5063043;28;20075;-63
2022/10/17 09:12:24;;;;;;;12.45;5.35;;;;;;;7.09;78.52;100144.97;5084479;28;20042;-63
2022/10/17 09:15:26;;;;;;;10.60;4.90;;;;;;;6.94;80.65;100151.19;5082963;28;20073;-58
2022/10/17 09:18:23;;;;;;;7.53;3.30;;;;;;;6.80;82.84;100156.50;5090556;28;20043;-62
2022/10/17 09:20:57;;;;;;;10.15;4.65;;;;;;;6.55;84.91;100151.63;5066436;28;20052;-56
2022/10/17 09:23:41;;;;;;;15.35;4.68;;;;;;;6.61;87.16;100196.34;5063932;28;20789;-55
2022/10/17 09:26:09;;;;;;;10.73;5.63;;;;;;;6.57;89.71;100192.09;5077957;28;20043;-57
2022/10/17 09:28:37;;;;;;;13.10;5.70;;;;;;;6.53;91.43;100193.00;5066529;28;20105;-61
2022/10/17 09:31:04;;;;;;;8.00;4.53;;;;;;;6.48;94.31;100186.16;5078537;28;20078;-63
2022/10/17 09:33:34;;;;;;;13.43;6.53;;;;;;;6.44;95.98;100164.66;5081545;28;20056;-62
2022/10/17 09:36:02;;;;;;;13.80;5.67;;;;;;;6.49;98.12;100167.22;5080097;28;20081;-62
2022/10/17 09:38:36;;;;;;;8.43;4.97;;;;;;;6.50;99.50;100161.16;5063397;28;20036;-64
2022/10/17 09:41:02;;;;;;;10.50;5.40;;;;;;;6.54;100.00;100168.84;5084263;28;20511;-63
2022/10/17 09:43:28;;;;;;;16.48;8.13;;;;;;;6.58;100.00;100177.44;5069911;28;20535;-62
2022/10/17 09:46:05;;;;;;;14.63;8.45;;;;;;;6.64;100.00;100154.16;5070175;28;20064;-63
2022/10/17 09:48:38;;;;;;;13.27;5.13;;;;;;;6.52;100.00;100125.84;5085280;28;20047;-63
2022/10/17 09:51:05;;;;;;;12.27;4.78;;;;;;;6.78;100.00;100145.34;5085286;28;20040;-63
2022/10/17 09:53:40;;;;;;;15.25;7.28;;;;;;;6.73;100.00;100112.69;5061306;28;20036;-63
2022/10/17 09:56:17;;;;;;;12.77;7.65;;;;;;;7.07;100.00;100144.13;5083264;28;20044;-63
2022/10/17 09:58:54;;;;;;;12.98;5.25;;;;;;;6.91;97.50;100143.47;5079685;28;20043;-65
2022/10/17 10:01:30;;;;;;;17.17;6.70;;;;;;;6.74;97.88;100115.25;5077773;28;20127;-65
2022/10/17 10:04:16;;;;;;;7.20;4.28;;;;;;;6.90;96.86;100134.03;5044776;28;20032;-62
2022/10/17 10:07:05;;;;;;;10.45;5.95;;;;;;;6.85;97.13;100106.53;5081484;28;20035;-65
2022/10/17 10:09:32;;;;;;;11.60;6.85;;;;;;;6.80;96.48;100081.56;5077327;28;20051;-64
2022/10/17 10:12:02;;;;;;;9.00;5.00;;;;;;;7.09;95.84;100109.63;5085504;28;20044;-61
2022/10/17 10:14:32;;;;;;;20.40;8.27;;;;;;;7.13;95.20;100113.03;5080835;28;20036;-64
2022/10/17 10:17:00;;;;;;;18.85;6.32;;;;;;;7.20;93.92;100120.69;5081561;28;20054;-63
2022/10/17 10:19:35;;;;;;;7.88;4.47;;;;;;;7.26;93.83;100103.38;5045720;28;20828;-62
2022/10/17 10:22:02;;;;;;;13.30;5.25;;;;;;;7.24;93.26;100127.53;5080984;28;20668;-64
2022/10/17 10:24:31;;;;;;;9.90;5.40;;;;;;;7.30;92.73;100100.72;5075882;28;20079;-61
2022/10/17 10:26:59;;;;;;;9.20;5.70;;;;;;;7.18;91.96;100075.03;5060237;28;20122;-66
2022/10/17 10:29:31;;;;;;;17.80;6.28;;;;;;;7.35;91.31;100103.25;5077304;28;20127;-52
2022/10/17 10:32:18;;;;;;;13.32;6.15;;;;;;;7.38;90.96;100104.03;5078524;28;20050;-64
2022/10/17 10:34:52;;;;;;;8.68;4.28;;;;;;;7.46;90.62;100099.63;5063133;28;20048;-64
2022/10/17 10:37:31;;;;;;;14.13;6.50;;;;;;;7.44;90.46;100100.50;5078233;28;20039;-64
2022/10/17 10:40:04;;;;;;;12.80;6.72;;;;;;;7.50;90.45;100093.53;5078384;28;20044;-63
2022/10/17 10:42:37;;;;;;;11.38;4.88;;;;;;;7.48;89.53;100108.22;5080516;28;20073;-59
2022/10/17 10:45:18;;;;;;;12.10;5.72;;;;;;;7.46;90.10;100122.06;5077976;28;20031;-63
2022/10/17 10:47:52;;;;;;;11.70;4.80;;;;;;;7.38;89.58;100095.47;5066785;28;20066;-62
2022/10/17 10:50:32;;;;;;;11.70;5.97;;;;;;;7.41;90.25;100085.06;5078694;28;20164;-62
2022/10/17 10:53:19;;;;;;;14.48;6.82;;;;;;;7.49;90.38;100071.09;5059913;28;20079;-63
2022/10/17 10:55:51;;;;;;;10.55;5.88;;;;;;;7.57;89.80;100079.63;5081961;28;20039;-64
2022/10/17 10:58:49;;;;;;;8.85;5.15;;;;;;;7.50;89.56;100062.47;5078192;28;20073;-64
2022/10/17 11:01:25;;;;;;;9.90;4.82;;;;;;;7.35;89.53;100034.25;5098851;28;20032;-56
2022/10/17 11:04:18;;;;;;;10.80;4.90;;;;;;;7.50;89.60;100110.78;5087254;28;20161;-65
2022/10/17 11:06:44;;;;;;;11.00;5.97;;;;;;;7.52;90.14;100068.50;5087373;28;20074;-67
2022/10/17 11:09:53;;;;;;;11.77;4.07;;;;;;;7.56;90.23;100067.56;5089394;28;20566;-65
2022/10/17 11:12:34;;;;;;;12.07;7.00;;;;;;;7.63;90.24;100065.72;5080061;28;20055;-61
2022/10/17 11:15:02;;;;;;;9.80;5.88;;;;;;;7.67;89.80;100064.81;5082877;28;20047;-65
2022/10/17 11:17:40;;;;;;;14.20;6.57;;;;;;;7.72;90.22;100090.59;5066354;28;20102;-58
2022/10/17 11:20:06;;;;;;;12.52;5.50;;;;;;;7.68;90.42;100084.63;5079515;28;20044;-60
2022/10/17 11:22:37;;;;;;;12.02;5.85;;;;;;;7.69;90.54;100080.31;5067844;28;20048;-65
2022/10/17 11:25:31;;;;;;;13.30;6.15;;;;;;;7.66;90.91;100078.59;5070619;28;20051;-62
2022/10/17 11:27:57;;;;;;;13.55;5.35;;;;;;;7.66;91.04;100060.50;5079907;28;20056;-58
2022/10/17 11:30:26;;;;;;;8.82;5.22;;;;;;;7.65;91.45;100076.91;5088299;28;20044;-62
2022/10/17 11:32:59;;;;;;;13.10;7.68;;;;;;;7.24;92.07;100005.13;5097179;28;20062;-63
2022/10/17 11:35:35;;;;;;;12.43;6.10;;;;;;;7.45;93.10;100024.63;5068612;28;20068;-62
2022/10/17 11:38:31;;;;;;;19.25;8.20;;;;;;;7.67;93.39;100051.84;5075751;28;20036;-63
2022/10/17 11:40:58;;;;;;;14.30;6.10;;;;;;;7.65;93.71;100051.00;5091039;28;20498;-62
2022/10/17 11:43:24;;;;;;;13.35;8.30;;;;;;;7.64;93.88;100042.41;5086479;28;20044;-62
2022/10/17 11:46:12;;;;;;;9.43;5.13;;;;;;;7.66;94.98;100042.38;5071184;28;20126;-67
2022/10/17 11:48:51;;;;;;;12.63;6.38;;;;;;;7.68;95.13;100039.78;5079575;28;20043;-60
2022/10/17 11:51:17;;;;;;;11.32;6.32;;;;;;;7.68;95.30;100030.28;5081256;28;20046;-58
2022/10/17 11:54:26;;;;;;;12.98;6.70;;;;;;;7.71;96.09;100016.41;5119140;27;20126;-60